Time;durP1;ratioP1;P1;durP2;ratioP2;P2;SDS_P1;SDS_P2;PMS_P1;PMS_P2;Temp;Humidity;BMP_temperature;BMP_pressure;BME280_temperature;BME280_humidity;BME280_pressure;Samples;Min_cycle;Max_cycle;Signal;HPM_P1;HPM_P2
2022/06/24 00:09:57;;;;;;;4.25;2.80;;;;;;;23.98;57.70;100636.78;20960684;28;20055;-64
2022/06/24 00:20:20;;;;;;;10.25;3.63;;;;;;;23.74;57.29;100613.16;20962414;28;20040;-64
2022/06/24 00:30:45;;;;;;;5.32;2.80;;;;;;;23.69;57.59;100609.41;20953703;28;20055;-64
2022/06/24 00:41:10;;;;;;;7.78;2.78;;;;;;;23.52;58.46;100607.97;20927987;28;20047;-63
2022/06/24 00:51:33;;;;;;;5.03;2.75;;;;;;;23.09;58.65;100590.25;20954999;28;20397;-64
2022/06/24 01:01:55;;;;;;;8.00;3.13;;;;;;;22.97;59.48;100581.03;20951966;28;20050;-64
2022/06/24 01:12:17;;;;;;;7.35;2.83;;;;;;;22.83;59.54;100570.41;20952799;28;20386;-63
2022/06/24 01:22:40;;;;;;;6.38;3.20;;;;;;;22.69;59.45;100561.44;20937747;28;20037;-64
2022/06/24 01:33:01;;;;;;;10.40;3.70;;;;;;;22.65;59.35;100549.50;20947216;28;20041;-64
2022/06/24 01:43:23;;;;;;;6.78;3.58;;;;;;;22.53;58.99;100540.34;20951352;28;20059;-64
2022/06/24 01:53:44;;;;;;;4.55;3.30;;;;;;;22.48;59.39;100524.09;20950468;28;20048;-64
2022/06/24 02:04:06;;;;;;;5.47;3.03;;;;;;;22.41;59.57;100512.53;20947701;28;20041;-64
2022/06/24 02:14:28;;;;;;;3.90;2.92;;;;;;;22.24;59.96;100496.09;20937342;28;20083;-64
2022/06/24 02:24:50;;;;;;;6.93;2.97;;;;;;;22.21;59.72;100488.50;20947350;28;20037;-64
2022/06/24 02:35:11;;;;;;;6.80;3.22;;;;;;;22.10;59.93;100473.81;20951460;28;20041;-64
2022/06/24 02:45:35;;;;;;;4.40;3.22;;;;;;;22.03;59.69;100464.09;20942520;28;20147;-64
2022/06/24 02:56:02;;;;;;;7.28;3.50;;;;;;;21.89;59.03;100438.34;20937794;28;20040;-64
2022/06/24 03:06:23;;;;;;;4.63;3.28;;;;;;;21.76;60.26;100423.03;20942177;28;20048;-64
2022/06/24 03:16:45;;;;;;;9.43;3.80;;;;;;;21.70;59.92;100412.31;20980524;28;20059;-64
2022/06/24 03:27:06;;;;;;;10.18;3.58;;;;;;;21.63;60.30;100390.16;20956614;28;20049;-63
2022/06/24 03:37:29;;;;;;;7.82;3.47;;;;;;;21.62;60.64;100389.31;20964953;28;20051;-64
2022/06/24 03:47:51;;;;;;;4.20;2.80;;;;;;;21.56;60.12;100373.25;20951214;28;20063;-64
2022/06/24 03:58:13;;;;;;;14.10;3.25;;;;;;;21.59;59.78;100368.47;20982885;28;20048;-64
2022/06/24 04:08:35;;;;;;;6.15;2.83;;;;;;;21.69;60.21;100368.19;20949909;28;20174;-64
2022/06/24 04:18:56;;;;;;;4.18;2.83;;;;;;;21.88;59.55;100389.75;20952256;28;20053;-64
2022/06/24 04:29:18;;;;;;;8.10;3.03;;;;;;;21.84;59.81;100377.00;20943815;28;20049;-64
2022/06/24 04:39:39;;;;;;;8.68;3.38;;;;;;;22.09;59.42;100370.44;20953966;28;20362;-64
2022/06/24 04:50:01;;;;;;;3.30;3.00;;;;;;;21.56;61.57;100360.00;20955568;28;20725;-65
2022/06/24 05:00:23;;;;;;;3.78;2.58;;;;;;;22.21;59.68;100358.34;20948297;28;20451;-65
2022/06/24 05:10:44;;;;;;;3.08;2.65;;;;;;;22.28;59.50;100364.53;20921295;28;20156;-65
2022/06/24 05:21:06;;;;;;;3.17;2.63;;;;;;;22.58;59.21;100357.22;20955703;28;20052;-65
2022/06/24 05:31:27;;;;;;;2.92;2.15;;;;;;;23.01;57.53;100348.28;20951299;28;20127;-64
2022/06/24 05:41:49;;;;;;;6.85;2.60;;;;;;;23.43;56.82;100374.91;20944121;28;20052;-64
2022/06/24 05:52:11;;;;;;;4.20;2.25;;;;;;;23.41;56.84;100342.34;20939938;28;21110;-65
2022/06/24 06:02:32;;;;;;;5.85;2.40;;;;;;;23.67;57.12;100329.22;20937611;28;20044;-65
2022/06/24 06:12:55;;;;;;;3.60;2.22;;;;;;;23.95;56.77;100338.84;20949296;28;20532;-66
2022/06/24 06:23:16;;;;;;;4.50;2.60;;;;;;;24.13;57.61;100341.00;20945926;28;20052;-65
2022/06/24 06:33:38;;;;;;;10.82;3.20;;;;;;;24.00;58.63;100340.94;20944947;28;20063;-65
2022/06/24 06:44:00;;;;;;;5.60;2.80;;;;;;;24.46;58.07;100343.63;20941942;28;20046;-65
2022/06/24 06:54:21;;;;;;;6.28;2.85;;;;;;;24.64;57.90;100341.25;20960398;28;20055;-65
2022/06/24 07:04:43;;;;;;;5.57;3.47;;;;;;;25.10;57.75;100352.84;20920780;28;20499;-64
2022/06/24 07:15:06;;;;;;;6.82;2.85;;;;;;;25.34;57.38;100349.59;20946752;28;20052;-65
2022/06/24 07:25:29;;;;;;;5.35;3.50;;;;;;;25.54;58.26;100339.75;20947079;28;20059;-65
2022/06/24 07:35:51;;;;;;;8.70;4.35;;;;;;;25.92;59.50;100330.06;20938532;28;20044;-65
2022/06/24 07:46:13;;;;;;;12.23;6.40;;;;;;;26.25;62.25;100334.31;20931963;28;20440;-65
2022/06/24 08:07:17;;;;;;;14.43;6.72;;;;;;;26.30;61.56;100314.94;20952233;28;20041;-66
2022/06/24 08:17:38;;;;;;;11.65;6.88;;;;;;;26.41;61.46;100323.97;20949703;28;20389;-65
2022/06/24 08:28:01;;;;;;;12.73;7.43;;;;;;;26.59;60.72;100316.06;20963036;28;20048;-65
2022/06/24 08:38:23;;;;;;;11.32;8.23;;;;;;;26.65;60.84;100309.84;20951963;28;20057;-67
2022/06/24 08:48:45;;;;;;;10.55;8.55;;;;;;;26.71;62.24;100324.22;20943567;28;20489;-62
2022/06/24 08:59:06;;;;;;;12.50;7.95;;;;;;;26.64;62.76;100313.56;20956904;28;20047;-63
2022/06/24 09:09:29;;;;;;;12.48;9.23;;;;;;;26.43;64.16;100321.06;20942465;28;20048;-63
2022/06/24 09:19:50;;;;;;;16.17;9.90;;;;;;;26.48;64.29;100324.78;20938567;28;20079;-63
2022/06/24 09:30:36;;;;;;;14.55;11.07;;;;;;;26.26;66.38;100341.28;20937488;28;20500;-63
2022/06/24 09:41:06;;;;;;;17.50;11.13;;;;;;;25.72;69.93;100345.28;20965651;28;20048;-63
2022/06/24 09:51:28;;;;;;;15.07;10.57;;;;;;;25.94;65.54;100341.38;20942476;28;20044;-63
2022/06/24 10:01:52;;;;;;;13.82;10.68;;;;;;;26.24;66.32;100331.81;20947019;28;20049;-64
2022/06/24 10:12:17;;;;;;;11.13;8.93;;;;;;;26.15;68.56;100346.47;20933237;28;20052;-65
2022/06/24 10:22:51;;;;;;;14.02;10.32;;;;;;;26.09;69.38;100355.31;20941778;28;20052;-65
2022/06/24 10:33:14;;;;;;;15.82;10.15;;;;;;;25.83;68.59;100366.06;20939393;28;20046;-66
2022/06/24 10:43:38;;;;;;;17.38;11.57;;;;;;;25.86;69.01;100376.34;20946277;28;20048;-66
2022/06/24 10:54:02;;;;;;;23.48;10.32;;;;;;;25.99;68.14;100381.66;20940619;28;20044;-67
2022/06/24 11:04:28;;;;;;;13.25;6.55;;;;;;;25.96;68.58;100392.75;20934278;28;20049;-66
2022/06/24 11:14:50;;;;;;;462.15;61.47;;;;;;;23.03;100.00;100399.44;20963024;28;20127;-65
2022/06/24 11:25:14;;;;;;;514.28;77.80;;;;;;;-139.34;100.00;63888.56;20932671;28;20036;-62
2022/06/24 11:35:37;;;;;;;10.18;4.60;;;;;;;26.22;nan;100390.03;20959125;28;20419;-67
2022/06/24 11:46:00;;;;;;;9.30;5.57;;;;;;;22.07;nan;100372.44;20955477;28;20428;-66
2022/06/24 11:56:22;;;;;;;11.00;6.50;;;;;;;21.40;nan;100365.44;20956202;28;20048;-67
2022/06/24 12:06:46;;;;;;;5.78;2.80;;;;;;;22.07;nan;100343.25;20958213;28;20052;-68
2022/06/24 12:17:10;;;;;;;7.22;1.70;;;;;;;22.25;nan;100343.69;20948521;28;20045;-66
2022/06/24 12:27:33;;;;;;;1.77;1.33;;;;;;;22.34;nan;100369.16;20963188;28;20083;-67
2022/06/24 12:37:55;;;;;;;2.83;1.20;;;;;;;22.83;nan;100369.16;20942428;28;20093;-67
2022/06/24 12:59:03;;;;;;;1.50;1.40;;;;;;;23.85;nan;100370.34;20928000;28;20040;-66
2022/06/24 13:09:25;;;;;;;4.00;1.58;;;;;;;24.36;nan;100364.50;20946588;28;20459;-67
2022/06/24 13:19:47;;;;;;;3.97;1.77;;;;;;;24.81;nan;100347.88;20934813;28;20053;-65
2022/06/24 13:30:11;;;;;;;4.25;1.80;;;;;;;25.04;nan;100364.31;20928588;28;20040;-65
2022/06/24 13:40:32;;;;;;;1.48;1.30;;;;;;;24.38;nan;100404.25;20939910;28;20052;-65
2022/06/24 13:50:54;;;;;;;1.63;1.20;;;;;;;23.17;nan;100409.22;20935695;28;20590;-65
2022/06/24 14:01:16;;;;;;;1.65;1.40;;;;;;;23.00;nan;100399.81;20942002;28;20060;-65
2022/06/24 14:11:38;;;;;;;2.33;1.58;;;;;;;22.98;nan;100431.13;20946771;28;20684;-64
2022/06/24 14:21:59;;;;;;;2.00;1.80;;;;;;;22.85;nan;100422.97;20939132;28;20091;-64
2022/06/24 14:32:21;;;;;;;2.40;1.08;;;;;;;23.03;nan;100412.72;20946264;28;19920;-63
2022/06/24 14:42:44;;;;;;;0.73;0.70;;;;;;;23.12;nan;100413.47;20962968;28;20084;-66
2022/06/24 14:53:05;;;;;;;0.77;0.77;;;;;;;23.13;nan;100418.63;20946347;28;20049;-64
2022/06/24 15:03:29;;;;;;;0.80;0.80;;;;;;;23.27;nan;100417.75;20950166;28;20086;-65
2022/06/24 15:13:51;;;;;;;0.95;0.70;;;;;;;23.14;nan;100428.22;20959990;28;20123;-64
2022/06/24 15:24:13;;;;;;;2.95;0.70;;;;;;;23.26;nan;100420.56;20978123;28;20067;-67
2022/06/24 15:34:34;;;;;;;0.90;0.90;;;;;;;23.18;nan;100416.19;20954720;28;20056;-63
2022/06/24 15:44:56;;;;;;;2.72;0.80;;;;;;;23.37;nan;100415.59;20946980;28;20102;-66
2022/06/24 15:55:18;;;;;;;1.00;0.90;;;;;;;23.44;nan;100437.75;20950544;28;20056;-64
2022/06/24 16:05:40;;;;;;;1.60;1.50;;;;;;;23.43;nan;100428.13;20950888;28;20044;-64
2022/06/24 16:16:02;;;;;;;1.20;1.20;;;;;;;23.59;nan;100419.84;20950496;28;20370;-66
2022/06/24 16:37:04;;;;;;;2.20;1.17;;;;;;;23.74;nan;100425.94;20956688;28;20411;-64
2022/06/24 16:47:27;;;;;;;1.10;1.10;;;;;;;24.06;nan;100406.75;20949461;28;20409;-64
2022/06/24 16:57:49;;;;;;;1.80;1.42;;;;;;;24.56;nan;100418.75;20947673;28;20052;-66
2022/06/24 17:08:10;;;;;;;1.30;1.13;;;;;;;25.18;nan;100411.38;20941380;28;20046;-64
2022/06/24 17:18:32;;;;;;;1.88;0.95;;;;;;;25.63;nan;100437.31;20957486;28;20044;-64
2022/06/24 17:28:54;;;;;;;0.90;0.90;;;;;;;25.02;nan;100451.78;20953598;28;20040;-64
2022/06/24 17:39:15;;;;;;;1.60;1.02;;;;;;;24.72;nan;100487.75;20946153;28;20655;-65
2022/06/24 17:49:37;;;;;;;1.13;0.90;;;;;;;24.76;nan;100510.31;20942594;28;20052;-66
2022/06/24 17:59:59;;;;;;;1.95;0.85;;;;;;;24.83;nan;100539.69;20929031;28;20106;-66
2022/06/24 18:10:20;;;;;;;0.70;0.70;;;;;;;24.58;nan;100544.72;20933933;28;20056;-66
2022/06/24 18:20:42;;;;;;;0.60;0.60;;;;;;;24.37;nan;100541.25;20926380;28;20126;-67
2022/06/24 18:31:04;;;;;;;0.70;0.70;;;;;;;24.18;nan;100541.06;20919500;28;20049;-65
2022/06/24 18:41:26;;;;;;;3.13;0.80;;;;;;;24.03;nan;100548.31;20923814;28;20102;-66
2022/06/24 18:51:47;;;;;;;1.45;0.80;;;;;;;23.97;nan;100557.09;20945945;28;20049;-63
2022/06/24 19:02:09;;;;;;;0.77;0.75;;;;;;;23.79;nan;100556.69;20923952;28;20065;-65
2022/06/24 19:12:32;;;;;;;0.82;0.80;;;;;;;23.72;nan;100545.13;20908716;28;20517;-65
2022/06/24 19:22:55;;;;;;;2.13;0.70;;;;;;;23.62;nan;100571.22;20919232;28;20524;-67
2022/06/24 19:33:17;;;;;;;0.65;0.65;;;;;;;23.55;nan;100581.81;20941460;28;20095;-66
2022/06/24 19:43:38;;;;;;;0.60;0.60;;;;;;;23.34;nan;100591.59;20940507;28;20048;-67
2022/06/24 19:54:00;;;;;;;;;;;;;;;23.23;nan;100592.06;20930102;28;20463;-65
2022/06/24 20:15:07;;;;;;;1.75;1.17;;;;;;;22.85;nan;100614.41;20940264;28;19971;-62
2022/06/24 20:28:40;;;;;;;1.53;1.10;;;;;;;22.65;82.80;100615.94;20408170;27;20478;-67
2022/06/24 20:39:03;;;;;;;2.33;1.20;;;;;;;22.56;84.27;100618.88;20486010;28;20050;-63
2022/06/24 20:49:24;;;;;;;2.50;1.20;;;;;;;22.07;86.10;100619.41;20496843;28;20054;-66
2022/06/24 20:59:46;;;;;;;3.15;1.50;;;;;;;22.12;85.07;100627.69;20501362;28;20027;-69
2022/06/24 21:10:09;;;;;;;2.72;1.55;;;;;;;22.06;85.29;100631.03;20511971;28;20047;-65
2022/06/24 21:20:30;;;;;;;2.72;1.55;;;;;;;21.98;85.06;100634.56;20496514;28;20050;-65
2022/06/24 21:30:52;;;;;;;2.22;1.80;;;;;;;21.97;86.00;100635.56;20479499;28;20400;-66
2022/06/24 21:41:13;;;;;;;3.40;2.03;;;;;;;21.85;87.11;100631.66;20432442;28;20570;-64
2022/06/24 21:51:36;;;;;;;2.63;2.05;;;;;;;21.74;86.97;100636.53;20454295;28;20062;-64
2022/06/24 22:01:57;;;;;;;3.28;2.58;;;;;;;21.71;86.41;100644.84;20438133;28;20036;-65
2022/06/24 22:12:19;;;;;;;2.78;2.10;;;;;;;21.63;89.10;100645.72;20446323;28;20536;-64
2022/06/24 22:22:40;;;;;;;6.97;5.25;;;;;;;21.55;90.35;100652.84;20430971;28;20036;-64
2022/06/24 22:33:02;;;;;;;14.20;8.55;;;;;;;21.39;92.11;100650.31;20436475;28;20065;-66
2022/06/24 22:43:24;;;;;;;9.38;7.95;;;;;;;21.25;95.44;100648.34;20449914;28;20519;-64
2022/06/24 22:53:45;;;;;;;14.93;9.25;;;;;;;21.06;95.41;100656.69;20448060;28;20051;-64
2022/06/24 23:04:08;;;;;;;11.07;9.30;;;;;;;20.99;96.74;100668.16;20443943;28;20053;-66
2022/06/24 23:14:30;;;;;;;12.95;10.88;;;;;;;20.87;98.65;100667.66;20437827;28;20506;-63
2022/06/24 23:24:57;;;;;;;15.60;12.35;;;;;;;20.82;97.71;100674.47;20451151;28;20043;-66
2022/06/24 23:35:18;;;;;;;15.80;12.05;;;;;;;20.74;97.08;100677.91;20451476;28;20055;-65
2022/06/24 23:45:40;;;;;;;18.30;13.93;;;;;;;20.68;98.16;100683.06;20433576;28;20050;-64
2022/06/24 23:56:02;;;;;;;18.13;14.93;;;;;;;20.64;96.34;100681.72;20423972;28;20051;-65
